Pagina principale
METAR-TAF:

METAR-TAF

Aeroporti :

Aeroporto di Erevan

Yerevan, Armenia

latitudine: 40-08-50N, longitudine: 044-23-45E, altezza: 865 m

Osservazione

Il bollettino è stato emesso 35 minuti fa, alle 15:30 UTC
Vento 9 kt da ovest
Temperature 26°C
Umidità 16%
Pressione 1016 hPa
Visibilità 10 km o più
Poco nuvoloso ad un'altezza di 4300 ft

METAR: UDYZ 051530Z 27009KT 9999 FEW043 26/M02 Q1016 R09/010070 NOSIG

Ora: 20:05 (16:05 UTC)

Previsione

Il bollettino è stato emesso 5 ore e 3 minuti fa, alle 11:02 UTC
Previsione valida dal 05 alle 12 UTC al 06 alle 12 UTC
Vento 6 kt da nord-est
Visibilità 10 km o più
Nubi sparse ad un'altezza di 4000 ft
Temporaneamente
dal 05 alle 12 UTC al 05 alle 18 UTC
Vento 16 kt da direzioni variabili con raffiche fino a 26 kt
Nuvoloso ad un'altezza di 4000 ft, Cumulonembo.
temporale, pioggia debole

TAF: UDYZ 051102Z 0512/0612 04006KT 9999 SCT040 TEMPO 0512/0518 VRB16G26KT -TSRA BKN040CB

Osservazioni e previsioni meteorologiche di più di 4000 aeroporti (messaggi METAR e TAF).

Le stazioni disponibili sono rappresentate dai dischi gialli e rossi sulla carta.

Puntare il mouse per vedere il nome della stazione.

Clicca sopra per visualizzare le osservazioni e previsioni meteorologiche.

Per cambiare la mappa : fare clic sui pulsanti verdi con una croce nera per ingrandire, il pulsante verde con un trattino per diminuire, o sulla freccia verde per le mappe adiacenti.


METAR-TAF: